createdAt,value
2023-12-19T00:00:34.646Z,8.03
2023-12-19T00:03:04.778Z,5.43
2023-12-19T00:05:34.838Z,6.20
2023-12-19T00:08:08.229Z,6.10
2023-12-19T00:10:38.332Z,8.10
2023-12-19T00:13:08.541Z,6.87
2023-12-19T00:15:38.485Z,8.00
2023-12-19T00:18:08.778Z,7.07
2023-12-19T00:20:39.079Z,7.97
2023-12-19T00:23:11.972Z,6.07
2023-12-19T00:25:41.920Z,6.73
2023-12-19T00:28:11.828Z,8.10
2023-12-19T00:30:43.145Z,7.27
2023-12-19T00:33:13.297Z,6.00
2023-12-19T00:35:43.707Z,6.60
2023-12-19T00:38:16.492Z,5.63
2023-12-19T00:40:46.483Z,11.43
2023-12-19T00:43:16.502Z,8.83
2023-12-19T00:45:46.551Z,6.60
2023-12-19T00:48:17.102Z,7.67
2023-12-19T00:50:47.207Z,7.23
2023-12-19T00:53:20.354Z,8.50
2023-12-19T00:55:50.442Z,7.87
2023-12-19T00:58:20.404Z,9.83
2023-12-19T01:00:50.432Z,8.70
2023-12-19T01:03:20.864Z,8.80
2023-12-19T01:05:50.928Z,6.43
2023-12-19T01:08:23.640Z,9.20
2023-12-19T01:10:53.657Z,7.17
2023-12-19T01:13:23.683Z,7.80
2023-12-19T01:15:54.026Z,9.20
2023-12-19T01:18:24.714Z,8.30
2023-12-19T01:20:54.775Z,8.40
2023-12-19T01:23:27.373Z,6.63
2023-12-19T01:25:57.366Z,5.63
2023-12-19T01:28:27.497Z,8.77
2023-12-19T01:30:57.791Z,8.00
2023-12-19T01:33:27.949Z,8.77
2023-12-19T01:36:00.132Z,8.90
2023-12-19T01:38:32.860Z,9.33
2023-12-19T01:41:03.363Z,9.67
2023-12-19T01:43:33.306Z,8.63
2023-12-19T01:46:03.747Z,9.33
2023-12-19T01:48:34.099Z,10.70
2023-12-19T01:51:04.701Z,6.23
2023-12-19T01:53:37.462Z,8.33
2023-12-19T01:56:08.538Z,7.33
2023-12-19T01:58:39.782Z,7.33
2023-12-19T02:01:10.183Z,6.53
2023-12-19T02:03:40.643Z,7.87
2023-12-19T02:06:11.219Z,7.23
2023-12-19T02:08:44.380Z,7.30
2023-12-19T02:11:14.469Z,7.83
2023-12-19T02:13:47.321Z,7.87
2023-12-19T02:16:17.340Z,7.33
2023-12-19T02:18:47.819Z,6.80
2023-12-19T02:21:17.852Z,6.77
2023-12-19T02:23:50.704Z,8.60
2023-12-19T02:26:20.734Z,8.17
2023-12-19T02:28:54.126Z,7.87
2023-12-19T02:31:24.372Z,7.80
2023-12-19T02:33:54.863Z,10.33
2023-12-19T02:36:24.932Z,10.77
2023-12-19T02:38:57.481Z,10.40
2023-12-19T02:41:27.820Z,9.57
2023-12-19T02:43:57.739Z,9.13
2023-12-19T02:46:28.340Z,8.73
2023-12-19T02:48:59.112Z,11.20
2023-12-19T02:51:30.748Z,10.47
2023-12-19T02:54:03.352Z,9.27
2023-12-19T02:56:35.563Z,9.70
2023-12-19T02:59:05.820Z,9.63
2023-12-19T03:01:36.149Z,13.20
2023-12-19T03:04:06.795Z,10.87
2023-12-19T03:06:37.192Z,10.50
2023-12-19T03:09:10.381Z,10.30
2023-12-19T03:11:41.475Z,9.43
2023-12-19T03:14:12.050Z,11.87
2023-12-19T03:16:42.005Z,10.10
2023-12-19T03:19:12.409Z,11.73
2023-12-19T03:21:42.733Z,8.63
2023-12-19T03:24:16.141Z,10.20
2023-12-19T03:26:46.147Z,9.20
2023-12-19T03:29:16.556Z,11.57
2023-12-19T03:31:46.571Z,11.53
2023-12-19T03:34:17.209Z,9.13
2023-12-19T03:37:34.653Z,12.47
2023-12-19T03:40:08.579Z,10.50
2023-12-19T03:42:40.307Z,9.50
2023-12-19T03:45:11.819Z,9.30
2023-12-19T03:47:42.760Z,12.10
2023-12-19T03:50:14.111Z,11.37
2023-12-19T03:52:44.359Z,9.27
2023-12-19T03:55:17.547Z,8.90
2023-12-19T03:57:47.579Z,10.07
2023-12-19T04:00:18.873Z,8.70
2023-12-19T04:02:49.032Z,11.00
2023-12-19T04:05:19.528Z,10.07
2023-12-19T04:07:49.449Z,10.90
2023-12-19T04:10:22.333Z,11.57
2023-12-19T04:12:52.300Z,9.80
2023-12-19T04:15:23.156Z,10.43
2023-12-19T04:17:53.317Z,10.10
2023-12-19T04:20:23.261Z,10.10
2023-12-19T04:22:53.213Z,10.70
2023-12-19T04:25:26.110Z,10.00
2023-12-19T04:27:56.219Z,8.40
2023-12-19T04:30:26.599Z,8.33
2023-12-19T04:32:56.697Z,13.27
2023-12-19T04:35:27.151Z,10.63
2023-12-19T04:37:57.812Z,11.60
2023-12-19T04:40:30.764Z,14.50
2023-12-19T04:43:01.108Z,15.53
2023-12-19T04:45:31.176Z,13.67
2023-12-19T04:48:01.517Z,20.97
2023-12-19T04:50:31.506Z,38.87
2023-12-19T04:53:02.474Z,28.47
2023-12-19T04:55:35.000Z,32.03
2023-12-19T04:58:05.703Z,51.97
2023-12-19T05:00:35.952Z,79.23
2023-12-19T05:03:06.545Z,128.53
2023-12-19T05:05:36.639Z,57.60
2023-12-19T05:08:07.022Z,179.27
2023-12-19T05:10:39.939Z,60.83
2023-12-19T05:13:11.125Z,153.30
2023-12-19T05:15:41.528Z,166.10
2023-12-19T05:18:11.623Z,79.53
2023-12-19T05:20:41.610Z,62.87
2023-12-19T05:23:11.564Z,274.70
2023-12-19T05:25:45.667Z,229.93
2023-12-19T05:28:15.685Z,246.07
2023-12-19T05:30:46.290Z,188.80
2023-12-19T05:33:16.557Z,189.60
2023-12-19T05:35:46.738Z,176.27
2023-12-19T05:38:16.720Z,167.13
2023-12-19T05:40:49.612Z,200.80
2023-12-19T05:43:20.663Z,118.23
2023-12-19T05:45:50.912Z,44.63
2023-12-19T05:48:22.513Z,97.70
2023-12-19T05:50:53.168Z,89.03
2023-12-19T05:53:23.593Z,27.83
2023-12-19T05:55:56.137Z,16.03
2023-12-19T05:58:26.400Z,23.63
2023-12-19T06:00:57.523Z,15.40
2023-12-19T06:03:27.865Z,14.93
2023-12-19T06:05:58.085Z,11.53
2023-12-19T06:08:28.366Z,13.43
2023-12-19T06:11:01.300Z,13.33
2023-12-19T06:13:32.538Z,14.80
2023-12-19T06:16:02.924Z,14.97
2023-12-19T06:18:33.175Z,14.13
2023-12-19T06:21:03.709Z,20.17
2023-12-19T06:23:33.659Z,20.33
2023-12-19T06:26:07.962Z,13.27
2023-12-19T06:28:39.847Z,14.00
2023-12-19T06:31:11.078Z,14.37
2023-12-19T06:33:41.226Z,21.03
2023-12-19T06:36:11.890Z,13.77
2023-12-19T06:38:41.864Z,16.50
2023-12-19T06:41:21.639Z,21.83
2023-12-19T06:43:52.288Z,32.37
2023-12-19T06:46:22.390Z,29.93
2023-12-19T06:48:52.475Z,55.37
2023-12-19T06:51:27.182Z,83.17
2023-12-19T06:53:57.882Z,229.43
2023-12-19T06:56:30.721Z,155.17
2023-12-19T06:59:02.354Z,83.83
2023-12-19T07:01:32.650Z,206.10
2023-12-19T07:04:03.268Z,331.30
2023-12-19T07:06:33.283Z,168.03
2023-12-19T07:09:03.795Z,275.40
2023-12-19T07:11:36.622Z,362.87
2023-12-19T07:14:06.855Z,410.70
2023-12-19T07:16:37.311Z,190.67
2023-12-19T07:19:07.578Z,401.17
2023-12-19T07:21:37.847Z,291.97
2023-12-19T07:24:09.037Z,450.43
2023-12-19T07:26:41.972Z,498.90
2023-12-19T07:29:12.328Z,532.93
2023-12-19T07:31:42.736Z,450.73
2023-12-19T07:34:12.835Z,745.00
2023-12-19T07:36:43.129Z,855.30
2023-12-19T07:39:13.921Z,561.10
2023-12-19T07:41:47.109Z,625.57
2023-12-19T07:44:17.797Z,578.70
2023-12-19T07:46:48.046Z,652.57
2023-12-19T07:49:19.164Z,552.70
2023-12-19T07:51:49.329Z,438.47
2023-12-19T07:54:21.345Z,656.53
2023-12-19T07:56:54.014Z,581.53
2023-12-19T07:59:24.663Z,699.07
2023-12-19T08:01:54.679Z,420.73
2023-12-19T08:04:25.403Z,558.40
2023-12-19T08:06:55.676Z,670.57
2023-12-19T08:09:27.991Z,941.23
2023-12-19T08:12:03.361Z,940.10
2023-12-19T08:14:33.448Z,1819.53
2023-12-19T08:17:03.621Z,638.97
2023-12-19T08:19:33.641Z,749.80
2023-12-19T08:22:04.361Z,962.57
2023-12-19T08:24:34.361Z,861.30
2023-12-19T08:27:07.965Z,1628.67
2023-12-19T08:29:38.297Z,382.27
2023-12-19T08:32:09.230Z,819.80
2023-12-19T08:34:39.454Z,574.63
2023-12-19T08:37:09.823Z,628.17
2023-12-19T08:39:39.815Z,903.87
2023-12-19T08:42:12.676Z,980.43
2023-12-19T08:44:43.008Z,672.13
2023-12-19T08:47:13.208Z,893.30
2023-12-19T08:49:45.136Z,504.00
2023-12-19T08:52:15.480Z,724.00
2023-12-19T08:54:46.225Z,262.97
2023-12-19T08:57:19.711Z,565.53
2023-12-19T08:59:50.898Z,898.17
2023-12-19T09:02:21.398Z,884.40
2023-12-19T09:04:55.285Z,212.03
2023-12-19T09:07:25.876Z,689.47
2023-12-19T09:09:57.557Z,265.87
2023-12-19T09:12:30.172Z,542.93
2023-12-19T09:15:00.461Z,745.37
2023-12-19T09:17:30.638Z,452.87
2023-12-19T09:20:01.310Z,729.70
2023-12-19T09:22:31.829Z,615.30
2023-12-19T09:25:01.849Z,441.63
2023-12-19T09:27:34.518Z,1072.27
2023-12-19T09:30:05.685Z,582.30
2023-12-19T09:32:38.166Z,554.43
2023-12-19T09:35:09.626Z,638.43
2023-12-19T09:37:40.140Z,694.10
2023-12-19T09:40:17.430Z,1266.00
2023-12-19T09:42:50.796Z,1147.07
2023-12-19T09:45:20.850Z,944.73
2023-12-19T09:48:01.442Z,1039.70
2023-12-19T09:50:32.549Z,807.13
2023-12-19T09:53:03.386Z,480.97
2023-12-19T09:55:34.351Z,997.77
2023-12-19T09:58:09.184Z,388.07
2023-12-19T10:00:42.246Z,1119.07
2023-12-19T10:03:12.213Z,270.40
2023-12-19T10:05:42.800Z,1205.20
2023-12-19T10:08:12.777Z,1135.33
2023-12-19T10:11:02.924Z,1187.57
2023-12-19T10:13:37.712Z,1048.07
2023-12-19T10:16:30.407Z,576.13
2023-12-19T10:19:01.118Z,590.23
2023-12-19T10:21:33.979Z,514.03
2023-12-19T10:24:13.604Z,226.13
2023-12-19T10:26:44.524Z,1031.70
2023-12-19T10:29:26.918Z,411.60
2023-12-19T10:31:57.348Z,967.80
2023-12-19T10:34:28.239Z,394.90
2023-12-19T10:36:59.290Z,1266.50
2023-12-19T10:39:29.338Z,563.40
2023-12-19T10:42:08.218Z,683.00
2023-12-19T10:44:43.177Z,1186.47
2023-12-19T10:47:13.896Z,1178.63
2023-12-19T10:49:43.996Z,774.93
2023-12-19T10:52:16.885Z,978.53
2023-12-19T10:54:49.734Z,856.57
2023-12-19T10:57:21.399Z,766.17
2023-12-19T11:00:02.355Z,477.87
2023-12-19T11:02:40.271Z,1272.43
2023-12-19T11:05:16.915Z,753.87
2023-12-19T11:07:48.810Z,282.73
2023-12-19T11:10:21.900Z,101.77
2023-12-19T11:12:53.883Z,765.20
2023-12-19T11:15:29.201Z,815.13
2023-12-19T11:18:04.827Z,1097.07
2023-12-19T11:20:40.345Z,1097.23
2023-12-19T11:23:21.118Z,1070.60
2023-12-19T11:25:58.925Z,1383.43
2023-12-19T11:28:30.806Z,1676.90
2023-12-19T11:31:04.410Z,1337.07
2023-12-19T11:33:38.950Z,1270.13
2023-12-19T11:36:17.760Z,1143.57
2023-12-19T11:38:49.175Z,1062.57
2023-12-19T11:41:39.244Z,1300.33
2023-12-19T11:44:09.773Z,502.17
2023-12-19T11:46:42.382Z,1999.90
2023-12-19T11:49:13.679Z,1085.60
2023-12-19T11:51:58.171Z,1330.53
2023-12-19T11:54:28.272Z,1261.03
2023-12-19T11:57:06.611Z,724.37
2023-12-19T11:59:50.771Z,758.83
2023-12-19T12:02:34.175Z,729.00
2023-12-19T12:05:14.751Z,935.53
2023-12-19T12:07:49.435Z,819.17
2023-12-19T12:10:23.861Z,711.33
2023-12-19T12:12:56.014Z,822.17
2023-12-19T12:15:27.991Z,1082.83
2023-12-19T12:18:09.145Z,981.77
2023-12-19T12:20:39.210Z,569.33
2023-12-19T12:23:09.645Z,1093.07
2023-12-19T12:25:40.934Z,1108.17
2023-12-19T12:28:12.240Z,1456.70
2023-12-19T12:30:43.715Z,128.47
2023-12-19T12:33:17.375Z,575.13
2023-12-19T12:35:47.559Z,991.17
2023-12-19T12:38:22.016Z,809.03
2023-12-19T12:40:58.241Z,922.77
2023-12-19T12:43:41.660Z,1156.33
2023-12-19T12:46:16.375Z,229.97
2023-12-19T12:49:05.328Z,899.13
2023-12-19T12:51:37.000Z,353.90
2023-12-19T12:54:07.802Z,795.57
2023-12-19T12:56:40.471Z,1384.97
2023-12-19T12:59:12.063Z,676.33
2023-12-19T13:01:44.071Z,1649.83
2023-12-19T13:04:18.605Z,1184.80
2023-12-19T13:06:51.016Z,833.93
2023-12-19T13:09:22.105Z,421.30
2023-12-19T13:11:55.447Z,945.63
2023-12-19T13:14:26.628Z,1246.97
2023-12-19T13:16:57.402Z,711.10
2023-12-19T13:19:30.071Z,847.53
2023-12-19T13:22:00.832Z,1247.73
2023-12-19T13:24:31.354Z,1211.43
2023-12-19T13:27:01.813Z,1280.63
2023-12-19T13:29:31.999Z,681.27
2023-12-19T13:32:02.513Z,1204.47
2023-12-19T13:34:35.334Z,852.73
2023-12-19T13:37:05.658Z,715.23
2023-12-19T13:39:36.796Z,1056.13
2023-12-19T13:42:07.237Z,854.33
2023-12-19T13:44:37.443Z,1004.50
2023-12-19T13:47:07.557Z,396.10
2023-12-19T13:49:41.383Z,738.10
2023-12-19T13:52:11.401Z,462.60
2023-12-19T13:54:42.273Z,860.60
2023-12-19T13:57:12.286Z,1191.13
2023-12-19T13:59:42.853Z,1459.20
2023-12-19T14:02:16.161Z,525.27
2023-12-19T14:04:49.051Z,1132.30
2023-12-19T14:07:21.492Z,171.67
2023-12-19T14:09:51.863Z,463.67
2023-12-19T14:12:22.505Z,985.00
2023-12-19T14:14:52.870Z,699.80
2023-12-19T14:17:23.272Z,713.10
2023-12-19T14:19:56.770Z,607.90
2023-12-19T14:22:27.590Z,759.67
2023-12-19T14:24:59.331Z,496.17
2023-12-19T14:27:29.939Z,305.90
2023-12-19T14:29:59.887Z,502.53
2023-12-19T14:32:30.459Z,575.73
2023-12-19T14:35:06.785Z,804.90
2023-12-19T14:37:37.853Z,264.00
2023-12-19T14:40:09.321Z,635.47
2023-12-19T14:42:41.187Z,292.10
2023-12-19T14:45:12.637Z,469.13
2023-12-19T14:47:43.788Z,680.50
2023-12-19T14:50:17.473Z,499.20
2023-12-19T14:52:47.554Z,767.23
2023-12-19T14:55:18.562Z,668.03
2023-12-19T14:57:48.962Z,591.43
2023-12-19T15:00:20.636Z,471.20
2023-12-19T15:02:51.372Z,389.50
2023-12-19T15:05:24.283Z,936.63
2023-12-19T15:07:54.325Z,342.47
2023-12-19T15:10:24.384Z,442.90
2023-12-19T15:12:54.941Z,247.33
2023-12-19T15:15:25.221Z,541.10
2023-12-19T15:17:55.537Z,822.37
2023-12-19T15:20:28.427Z,693.97
2023-12-19T15:22:59.073Z,763.30
2023-12-19T15:25:29.038Z,513.80
2023-12-19T15:28:05.192Z,324.70
2023-12-19T15:30:42.516Z,295.20
2023-12-19T15:33:15.306Z,493.80
2023-12-19T15:35:49.095Z,451.47
2023-12-19T15:38:19.393Z,570.17
2023-12-19T15:40:49.330Z,378.77
2023-12-19T15:43:29.870Z,775.87
2023-12-19T15:46:11.130Z,1000.57
2023-12-19T15:48:41.607Z,397.27
2023-12-19T15:51:22.541Z,956.30
2023-12-19T15:53:52.700Z,742.70
2023-12-19T15:56:27.850Z,751.83
2023-12-19T15:58:58.223Z,341.07
2023-12-19T16:01:29.016Z,1013.17
2023-12-19T16:03:59.949Z,933.33
2023-12-19T16:06:34.591Z,1265.00
2023-12-19T16:09:05.487Z,1189.57
2023-12-19T16:11:35.753Z,805.57
2023-12-19T16:14:06.719Z,320.80
2023-12-19T16:16:40.238Z,1219.30
2023-12-19T16:19:11.800Z,526.27
2023-12-19T16:21:45.461Z,246.23
2023-12-19T16:24:15.978Z,632.40
2023-12-19T16:26:46.357Z,636.10
2023-12-19T16:29:16.711Z,1184.27
2023-12-19T16:31:46.790Z,827.77
2023-12-19T16:34:16.810Z,924.37
2023-12-19T16:36:51.419Z,1693.20
2023-12-19T16:39:21.367Z,761.07
2023-12-19T16:41:52.451Z,1098.00
2023-12-19T16:44:22.386Z,494.37
2023-12-19T16:46:53.003Z,564.40
2023-12-19T16:49:23.154Z,1423.87
2023-12-19T16:51:56.681Z,1467.67
2023-12-19T16:54:26.828Z,1014.23
2023-12-19T16:56:56.942Z,691.97
2023-12-19T16:59:34.108Z,927.70
2023-12-19T17:02:09.845Z,784.67
2023-12-19T17:04:48.307Z,789.50
2023-12-19T17:07:20.910Z,960.87
2023-12-19T17:09:51.625Z,458.27
2023-12-19T17:12:21.620Z,1233.53
2023-12-19T17:14:52.328Z,772.33
2023-12-19T17:17:22.320Z,789.90
2023-12-19T17:19:52.910Z,265.50
2023-12-19T17:22:25.516Z,417.37
2023-12-19T17:24:55.890Z,897.17
2023-12-19T17:27:25.893Z,1083.97
2023-12-19T17:29:56.417Z,867.77
2023-12-19T17:32:27.749Z,405.50
2023-12-19T17:34:57.807Z,1107.10
2023-12-19T17:37:35.295Z,403.00
2023-12-19T17:40:08.569Z,562.67
2023-12-19T17:42:39.270Z,473.70
2023-12-19T17:45:12.483Z,1027.57
2023-12-19T17:47:42.558Z,663.87
2023-12-19T17:50:13.105Z,712.73
2023-12-19T17:52:46.318Z,427.00
2023-12-19T17:55:18.667Z,830.43
2023-12-19T17:57:49.225Z,684.50
2023-12-19T18:00:20.722Z,1246.63
2023-12-19T18:02:52.820Z,403.67
2023-12-19T18:05:22.969Z,654.63
2023-12-19T18:07:55.560Z,749.03
2023-12-19T18:10:25.861Z,1154.57
2023-12-19T18:12:55.968Z,732.57
2023-12-19T18:15:26.053Z,836.80
2023-12-19T18:17:57.722Z,741.67
2023-12-19T18:20:30.337Z,522.77
2023-12-19T18:23:02.925Z,1572.03
2023-12-19T18:25:33.376Z,1050.90
2023-12-19T18:28:03.429Z,1129.03
2023-12-19T18:30:33.609Z,603.80
2023-12-19T18:33:04.228Z,391.80
2023-12-19T18:35:34.344Z,1096.70
2023-12-19T18:38:09.602Z,897.93
2023-12-19T18:40:41.000Z,839.60
2023-12-19T18:43:11.502Z,1072.17
2023-12-19T18:45:42.159Z,962.30
2023-12-19T18:48:12.512Z,418.47
2023-12-19T18:50:42.773Z,776.97
2023-12-19T18:53:16.532Z,958.60
2023-12-19T18:55:46.640Z,414.63
2023-12-19T18:58:17.492Z,332.80
2023-12-19T19:00:48.566Z,918.40
2023-12-19T19:03:19.753Z,1246.40
2023-12-19T19:05:49.948Z,475.60
2023-12-19T19:08:22.763Z,675.90
2023-12-19T19:10:52.814Z,682.37
2023-12-19T19:13:22.869Z,320.40
2023-12-19T19:15:55.433Z,836.37
2023-12-19T19:18:26.928Z,911.93
2023-12-19T19:20:57.259Z,187.47
2023-12-19T19:23:29.971Z,1122.83
2023-12-19T19:26:02.303Z,976.70
2023-12-19T19:28:33.073Z,425.80
2023-12-19T19:31:03.709Z,932.03
2023-12-19T19:33:34.798Z,1174.57
2023-12-19T19:36:05.951Z,941.00
2023-12-19T19:38:39.048Z,861.90
2023-12-19T19:41:10.288Z,943.10
2023-12-19T19:43:43.660Z,826.83
2023-12-19T19:46:15.226Z,1014.53
2023-12-19T19:48:46.288Z,875.17
2023-12-19T19:51:16.351Z,560.77
2023-12-19T19:53:49.509Z,485.90
2023-12-19T19:56:20.197Z,545.97
2023-12-19T19:58:50.397Z,596.10
2023-12-19T20:01:21.309Z,209.80
2023-12-19T20:03:52.033Z,285.37
2023-12-19T20:06:22.174Z,284.67
2023-12-19T20:08:55.441Z,212.53
2023-12-19T20:11:26.153Z,183.43
2023-12-19T20:13:56.667Z,225.20
2023-12-19T20:16:27.527Z,132.77
2023-12-19T20:18:57.810Z,394.20
2023-12-19T20:21:28.236Z,352.60
2023-12-19T20:24:03.859Z,155.00
2023-12-19T20:26:35.637Z,324.80
2023-12-19T20:29:06.076Z,206.57
2023-12-19T20:31:36.555Z,425.77
2023-12-19T20:34:06.822Z,326.30
2023-12-19T20:36:38.385Z,273.47
2023-12-19T20:39:13.161Z,227.20
2023-12-19T20:41:44.365Z,374.37
2023-12-19T20:44:14.723Z,190.30
2023-12-19T20:46:45.036Z,165.43
2023-12-19T20:49:16.182Z,392.13
2023-12-19T20:51:46.774Z,248.97
2023-12-19T20:54:20.567Z,538.90
2023-12-19T20:56:50.844Z,512.70
2023-12-19T20:59:21.652Z,377.53
2023-12-19T21:01:52.011Z,275.17
2023-12-19T21:04:22.948Z,214.90
2023-12-19T21:06:53.095Z,452.73
2023-12-19T21:09:25.858Z,488.27
2023-12-19T21:11:56.543Z,265.53
2023-12-19T21:14:27.969Z,287.73
2023-12-19T21:17:06.848Z,200.27
2023-12-19T21:19:40.118Z,253.73
2023-12-19T21:22:15.285Z,281.17
2023-12-19T21:24:48.174Z,226.07
2023-12-19T21:27:18.677Z,157.33
2023-12-19T21:29:48.808Z,168.27
2023-12-19T21:32:19.245Z,271.10
2023-12-19T21:34:49.425Z,448.27
2023-12-19T21:37:20.449Z,293.63
2023-12-19T21:39:53.557Z,318.00
2023-12-19T21:42:23.627Z,392.13
2023-12-19T21:44:53.845Z,408.50
2023-12-19T21:47:24.159Z,497.90
2023-12-19T21:49:54.748Z,461.80
2023-12-19T21:52:26.245Z,548.83
2023-12-19T21:55:01.817Z,485.40
2023-12-19T21:57:33.761Z,458.30
2023-12-19T22:00:04.140Z,483.97
2023-12-19T22:02:34.836Z,336.83
2023-12-19T22:05:06.666Z,255.30
2023-12-19T22:07:36.780Z,354.03
2023-12-19T22:10:11.835Z,444.53
2023-12-19T22:12:44.459Z,348.73
2023-12-19T22:15:16.796Z,262.20
2023-12-19T22:17:47.905Z,217.87
2023-12-19T22:20:18.572Z,268.30
2023-12-19T22:22:49.049Z,370.97
2023-12-19T22:25:21.808Z,196.93
2023-12-19T22:27:52.181Z,346.67
2023-12-19T22:30:22.812Z,355.23
2023-12-19T22:32:53.502Z,316.20
2023-12-19T22:35:23.659Z,412.97
2023-12-19T22:37:54.665Z,258.83
2023-12-19T22:40:27.559Z,365.33
2023-12-19T22:42:57.727Z,353.97
2023-12-19T22:45:28.175Z,340.67
2023-12-19T22:47:58.163Z,234.90
2023-12-19T22:50:28.610Z,292.63
2023-12-19T22:52:59.085Z,101.37
2023-12-19T22:55:39.989Z,172.97
2023-12-19T22:58:10.112Z,280.27
2023-12-19T23:00:40.902Z,288.23
2023-12-19T23:03:12.504Z,298.13
2023-12-19T23:05:42.676Z,246.80
2023-12-19T23:08:12.851Z,415.90
2023-12-19T23:10:45.467Z,322.03
2023-12-19T23:13:15.769Z,376.10
2023-12-19T23:15:47.689Z,328.07
2023-12-19T23:18:17.948Z,247.53
2023-12-19T23:20:48.105Z,298.40
2023-12-19T23:23:18.643Z,359.33
2023-12-19T23:25:51.274Z,235.43
2023-12-19T23:28:21.585Z,226.70
2023-12-19T23:30:52.021Z,112.07
2023-12-19T23:33:22.129Z,256.70
2023-12-19T23:35:52.138Z,229.67
2023-12-19T23:38:22.617Z,314.50
2023-12-19T23:40:55.200Z,299.40
2023-12-19T23:43:25.510Z,199.80
2023-12-19T23:45:55.807Z,362.30
2023-12-19T23:48:25.798Z,360.07
2023-12-19T23:50:55.837Z,480.23
2023-12-19T23:53:25.827Z,312.50
2023-12-19T23:55:58.665Z,413.03
2023-12-19T23:58:28.630Z,426.43
